Time;durP1;ratioP1;P1;durP2;ratioP2;P2;SDS_P1;SDS_P2;PMS_P1;PMS_P2;Temp;Humidity;BMP_temperature;BMP_pressure;BME280_temperature;BME280_humidity;BME280_pressure;Samples;Min_cycle;Max_cycle;Signal;HPM_P1;HPM_P2
2024/04/11 00:02:03;;;;;;;27.95;25.20;;;;;;;;;;6247750;23;20019;-95
2024/04/11 00:04:29;;;;;;;20.48;18.98;;;;;;;;;;6247056;23;20012;-95
2024/04/11 00:07:01;;;;;;;12.65;11.40;;;;;;;;;;6247473;23;20004;-94
2024/04/11 00:09:28;;;;;;;21.50;19.83;;;;;;;;;;6246603;23;20000;-95
2024/04/11 00:11:54;;;;;;;16.30;15.10;;;;;;;;;;6247931;23;20004;-94
2024/04/11 00:14:20;;;;;;;18.65;16.98;;;;;;;;;;6246573;23;20008;-94
2024/04/11 00:16:46;;;;;;;25.48;23.85;;;;;;;;;;6247271;23;20338;-95
2024/04/11 00:19:13;;;;;;;23.75;22.08;;;;;;;;;;6248020;23;20015;-95
2024/04/11 00:21:39;;;;;;;23.33;21.70;;;;;;;;;;6246844;23;20027;-94
2024/04/11 00:24:05;;;;;;;26.05;24.25;;;;;;;;;;6247654;23;20004;-94
2024/04/11 00:26:31;;;;;;;22.30;20.67;;;;;;;;;;6247136;23;20004;-95
2024/04/11 00:28:57;;;;;;;14.75;13.63;;;;;;;;;;6248650;23;20007;-94
2024/04/11 00:31:29;;;;;;;15.65;14.45;;;;;;;;;;6247509;23;20004;-93
2024/04/11 00:33:56;;;;;;;22.17;20.58;;;;;;;;;;6246885;23;20004;-93
2024/04/11 00:36:26;;;;;;;19.80;18.40;;;;;;;;;;6247471;23;20483;-95
2024/04/11 00:38:53;;;;;;;22.05;20.27;;;;;;;;;;6246791;23;20004;-95
2024/04/11 00:41:22;;;;;;;20.05;18.30;;;;;;;;;;6247005;23;20016;-94
2024/04/11 00:43:48;;;;;;;19.70;18.35;;;;;;;;;;6247377;23;20008;-94
2024/04/11 00:46:20;;;;;;;20.85;19.23;;;;;;;;;;6247761;23;20079;-93
2024/04/11 00:48:46;;;;;;;15.43;14.18;;;;;;;;;;6247797;23;20001;-95
2024/04/11 00:51:21;;;;;;;22.63;20.92;;;;;;;;;;6247910;23;20004;-94
2024/04/11 00:53:53;;;;;;;20.45;18.83;;;;;;;;;;6248176;23;20019;-95
2024/04/11 00:56:20;;;;;;;17.13;15.48;;;;;;;;;;6246813;23;20008;-94
2024/04/11 00:58:46;;;;;;;22.70;21.00;;;;;;;;;;6247327;23;20008;-94
2024/04/11 01:01:12;;;;;;;16.60;15.20;;;;;;;;;;6246689;23;20016;-94
2024/04/11 01:03:39;;;;;;;20.83;19.30;;;;;;;;;;6247056;23;20020;-95
2024/04/11 01:06:05;;;;;;;19.42;17.60;;;;;;;;;;6247316;23;20035;-95
2024/04/11 01:08:34;;;;;;;16.40;15.05;;;;;;;;;;6247504;23;20000;-94
2024/04/11 01:11:01;;;;;;;19.20;17.67;;;;;;;;;;6247168;23;20008;-94
2024/04/11 01:13:27;;;;;;;15.38;14.18;;;;;;;;;;6247481;23;20054;-95
2024/04/11 01:15:54;;;;;;;21.40;19.80;;;;;;;;;;6246813;23;20004;-94
2024/04/11 01:18:20;;;;;;;19.80;18.05;;;;;;;;;;6247223;23;20008;-93
2024/04/11 01:20:46;;;;;;;21.90;20.23;;;;;;;;;;6247465;23;20012;-95
2024/04/11 01:23:16;;;;;;;23.02;21.10;;;;;;;;;;6247283;23;20315;-94
2024/04/11 01:25:43;;;;;;;22.55;20.75;;;;;;;;;;6246506;23;20011;-94
2024/04/11 01:28:10;;;;;;;21.17;19.45;;;;;;;;;;6246196;23;20008;-94
2024/04/11 01:30:36;;;;;;;19.67;18.00;;;;;;;;;;6246810;23;20008;-95
2024/04/11 01:33:09;;;;;;;22.10;20.30;;;;;;;;;;6246355;23;20054;-95
2024/04/11 01:35:35;;;;;;;17.73;16.33;;;;;;;;;;6246984;23;20020;-94
2024/04/11 01:38:02;;;;;;;23.58;21.80;;;;;;;;;;6246684;23;20000;-94
2024/04/11 01:40:34;;;;;;;17.80;16.40;;;;;;;;;;6247262;23;20017;-93
2024/04/11 01:43:01;;;;;;;16.75;14.55;;;;;;;;;;6250186;23;20389;-94
2024/04/11 01:45:27;;;;;;;20.77;18.98;;;;;;;;;;6248846;23;20035;-95
2024/04/11 01:47:53;;;;;;;25.23;23.13;;;;;;;;;;6249531;23;20019;-95
2024/04/11 01:50:21;;;;;;;20.83;19.17;;;;;;;;;;6249741;23;20098;-93
2024/04/11 01:52:47;;;;;;;21.48;19.60;;;;;;;;;;6248277;23;20433;-94
2024/04/11 01:55:14;;;;;;;25.48;23.38;;;;;;;;;;6249739;23;20083;-94
2024/04/11 01:57:41;;;;;;;22.58;20.80;;;;;;;;;;6248139;23;20023;-94
2024/04/11 02:00:13;;;;;;;27.77;25.60;;;;;;;;;;6248943;23;20013;-92
2024/04/11 02:02:43;;;;;;;20.05;18.38;;;;;;;;;;6248215;23;20072;-95
2024/04/11 02:05:10;;;;;;;24.55;22.85;;;;;;;;;;6248678;23;20008;-94
2024/04/11 02:07:37;;;;;;;15.45;14.10;;;;;;;;;;6249441;23;20004;-94
2024/04/11 02:10:05;;;;;;;21.13;19.40;;;;;;;;;;6249343;23;20016;-94
2024/04/11 02:12:31;;;;;;;19.40;17.58;;;;;;;;;;6249320;23;20008;-94
2024/04/11 02:14:58;;;;;;;21.90;20.10;;;;;;;;;;6248458;23;20008;-95
2024/04/11 02:17:24;;;;;;;19.15;17.58;;;;;;;;;;6249598;23;20012;-96
2024/04/11 02:19:51;;;;;;;23.65;21.85;;;;;;;;;;6247319;23;20004;-94
2024/04/11 02:22:17;;;;;;;15.50;13.98;;;;;;;;;;6249133;23;20016;-95
2024/04/11 02:24:44;;;;;;;24.35;22.35;;;;;;;;;;6248163;23;20433;-94
2024/04/11 02:27:10;;;;;;;28.13;26.10;;;;;;;;;;6248634;23;20008;-95
2024/04/11 02:29:36;;;;;;;20.50;18.60;;;;;;;;;;6248287;23;20000;-93
2024/04/11 02:32:02;;;;;;;17.23;15.55;;;;;;;;;;6248510;23;20011;-94
2024/04/11 02:34:29;;;;;;;19.67;17.85;;;;;;;;;;6248309;23;20111;-94
2024/04/11 02:36:56;;;;;;;21.85;19.70;;;;;;;;;;6249076;23;20030;-95
2024/04/11 02:39:22;;;;;;;23.45;21.52;;;;;;;;;;6260946;22;20028;-92
2024/04/11 02:41:48;;;;;;;19.95;18.15;;;;;;;;;;6266857;23;20008;-94
2024/04/11 02:44:14;;;;;;;21.92;20.23;;;;;;;;;;6252247;23;20024;-94
2024/04/11 02:46:41;;;;;;;28.08;25.92;;;;;;;;;;6223237;23;20008;-93
2024/04/11 02:49:07;;;;;;;20.35;18.65;;;;;;;;;;6247723;23;20050;-94
2024/04/11 02:51:37;;;;;;;23.73;21.73;;;;;;;;;;6247606;23;20010;-94
2024/04/11 02:54:07;;;;;;;27.27;24.98;;;;;;;;;;6247535;23;20024;-94
2024/04/11 02:56:34;;;;;;;22.15;20.33;;;;;;;;;;6260032;22;19993;-94
2024/04/11 02:59:00;;;;;;;23.70;21.40;;;;;;;;;;6274140;22;20027;-94
2024/04/11 03:01:26;;;;;;;28.10;26.02;;;;;;;;;;6262500;22;20020;-95
2024/04/11 03:03:58;;;;;;;23.55;21.35;;;;;;;;;;6257651;23;20391;-95
2024/04/11 03:06:24;;;;;;;26.02;23.98;;;;;;;;;;6248290;23;20456;-94
2024/04/11 03:08:56;;;;;;;28.17;25.83;;;;;;;;;;6249799;23;20011;-94
2024/04/11 03:11:38;;;;;;;25.83;23.67;;;;;;;;;;6249767;23;20054;-95
2024/04/11 03:14:06;;;;;;;25.42;23.40;;;;;;;;;;6247422;23;20000;-94
2024/04/11 03:16:32;;;;;;;25.05;23.15;;;;;;;;;;6247269;23;20347;-95
2024/04/11 03:18:59;;;;;;;29.50;27.17;;;;;;;;;;6247040;23;20004;-93
2024/04/11 03:21:25;;;;;;;24.73;22.58;;;;;;;;;;6247268;23;20012;-95
2024/04/11 03:23:51;;;;;;;28.23;25.95;;;;;;;;;;6247261;23;20005;-95
2024/04/11 03:26:17;;;;;;;20.77;18.98;;;;;;;;;;6248202;23;20028;-96
2024/04/11 03:28:43;;;;;;;25.50;23.45;;;;;;;;;;6248289;23;20086;-94
2024/04/11 03:31:13;;;;;;;27.65;25.48;;;;;;;;;;6247496;23;20012;-94
2024/04/11 03:33:39;;;;;;;27.20;24.80;;;;;;;;;;6249268;23;20016;-95
2024/04/11 03:36:09;;;;;;;30.48;28.17;;;;;;;;;;6248169;23;20049;-94
2024/04/11 03:38:35;;;;;;;26.13;24.13;;;;;;;;;;6247903;23;20000;-95
2024/04/11 03:41:07;;;;;;;25.25;23.05;;;;;;;;;;6248168;23;20016;-95
2024/04/11 03:43:34;;;;;;;27.88;25.67;;;;;;;;;;6247701;23;20000;-95
2024/04/11 03:46:19;;;;;;;24.33;22.40;;;;;;;;;;6248137;23;20011;-94
2024/04/11 03:48:55;;;;;;;23.70;21.52;;;;;;;;;;6248419;23;20365;-95
2024/04/11 03:51:23;;;;;;;30.48;27.90;;;;;;;;;;6247490;23;20000;-93
2024/04/11 03:53:56;;;;;;;25.45;22.92;;;;;;;;;;6247536;23;20395;-94
2024/04/11 03:56:23;;;;;;;26.98;24.50;;;;;;;;;;6248967;23;19996;-95
2024/04/11 03:58:50;;;;;;;26.55;24.40;;;;;;;;;;6248237;23;20008;-94
2024/04/11 04:01:18;;;;;;;18.63;16.92;;;;;;;;;;6247650;23;20087;-95
2024/04/11 04:03:44;;;;;;;19.65;17.27;;;;;;;;;;6252258;23;20000;-96
2024/04/11 04:06:12;;;;;;;20.30;17.45;;;;;;;;;;6254925;23;20034;-95
2024/04/11 04:08:40;;;;;;;14.50;11.00;;;;;;;;;;6259839;22;20012;-94
2024/04/11 04:11:07;;;;;;;16.40;14.70;;;;;;;;;;6266718;22;20012;-96
2024/04/11 04:13:34;;;;;;;17.92;16.17;;;;;;;;;;6253679;23;20378;-95
2024/04/11 04:16:01;;;;;;;16.88;15.23;;;;;;;;;;6249659;23;20063;-95
2024/04/11 04:18:27;;;;;;;14.63;12.18;;;;;;;;;;6246434;23;20004;-96
2024/04/11 04:20:56;;;;;;;17.98;15.73;;;;;;;;;;6246090;23;20062;-95
2024/04/11 04:23:22;;;;;;;15.90;14.35;;;;;;;;;;6246956;23;20415;-95
2024/04/11 04:26:04;;;;;;;21.58;14.30;;;;;;;;;;6247160;23;20011;-94
2024/04/11 04:28:32;;;;;;;18.95;13.55;;;;;;;;;;6246711;23;20011;-94
2024/04/11 04:31:16;;;;;;;27.02;24.65;;;;;;;;;;6246530;23;20011;-95
2024/04/11 04:33:42;;;;;;;;;;;;;;;;;;6246582;23;20334;-94
2024/04/11 04:36:11;;;;;;;19.42;17.67;;;;;;;;;;6245998;23;19900;-94
2024/04/11 04:38:38;;;;;;;19.40;17.15;;;;;;;;;;6245758;23;20000;-95
2024/04/11 04:41:04;;;;;;;19.13;14.07;;;;;;;;;;6245597;23;20039;-93
2024/04/11 04:43:31;;;;;;;21.95;19.98;;;;;;;;;;6246812;23;20079;-96
2024/04/11 04:45:57;;;;;;;18.42;16.48;;;;;;;;;;6251472;23;20065;-96
2024/04/11 04:48:24;;;;;;;25.52;18.83;;;;;;;;;;6247211;23;20381;-96
2024/04/11 04:50:53;;;;;;;16.73;13.77;;;;;;;;;;6248636;23;20015;-96
2024/04/11 04:56:09;;;;;;;16.85;15.35;;;;;;;;;;6117883;22;20030;-95
2024/04/11 04:58:43;;;;;;;18.20;14.90;;;;;;;;;;6099703;22;20010;-96
2024/04/11 05:01:13;;;;;;;17.55;15.73;;;;;;;;;;6082021;23;20090;-96
2024/04/11 05:03:53;;;;;;;19.33;17.30;;;;;;;;;;6106716;23;20006;-96
2024/04/11 05:06:19;;;;;;;22.85;12.20;;;;;;;;;;6110503;23;20102;-96
2024/04/11 05:08:46;;;;;;;17.25;15.40;;;;;;;;;;6097895;23;20038;-95
2024/04/11 05:11:21;;;;;;;23.83;21.70;;;;;;;;;;6094206;23;20660;-95
2024/04/11 05:13:53;;;;;;;22.33;17.10;;;;;;;;;;6099676;23;20007;-96
2024/04/11 05:16:19;;;;;;;29.48;27.10;;;;;;;;;;6104042;23;20033;-96
2024/04/11 05:18:47;;;;;;;36.00;33.25;;;;;;;;;;6102163;23;20061;-93
2024/04/11 05:21:18;;;;;;;30.30;27.85;;;;;;;;;;6099815;23;20041;-95
2024/04/11 05:23:44;;;;;;;52.72;48.97;;;;;;;;;;6094726;23;20414;-95
2024/04/11 05:26:22;;;;;;;38.25;35.00;;;;;;;;;;6096709;23;20084;-94
2024/04/11 05:32:01;;;;;;;60.42;56.10;;;;;;;;;;6134944;23;20041;-95
2024/04/11 05:34:29;;;;;;;57.90;54.10;;;;;;;;;;6106190;23;20006;-96
2024/04/11 05:36:55;;;;;;;66.07;62.03;;;;;;;;;;6100947;23;20006;-96
2024/04/11 05:39:22;;;;;;;82.60;77.15;;;;;;;;;;6101733;23;20002;-95
2024/04/11 05:41:49;;;;;;;84.43;79.25;;;;;;;;;;6109526;23;20040;-94
2024/04/11 05:44:15;;;;;;;102.40;96.22;;;;;;;;;;6104260;23;20085;-95
2024/04/11 05:46:43;;;;;;;95.53;89.50;;;;;;;;;;6099663;23;20017;-96
2024/04/11 05:49:09;;;;;;;110.32;104.03;;;;;;;;;;6098638;23;20313;-96
2024/04/11 05:51:35;;;;;;;72.53;67.95;;;;;;;;;;6098385;23;20002;-95
2024/04/11 05:54:02;;;;;;;77.68;72.63;;;;;;;;;;6099607;23;20065;-95
2024/04/11 05:56:28;;;;;;;80.28;75.22;;;;;;;;;;6099409;23;20060;-96
2024/04/11 05:58:54;;;;;;;80.20;75.15;;;;;;;;;;6098964;23;20010;-96
2024/04/11 06:01:25;;;;;;;83.20;78.15;;;;;;;;;;6109364;22;20021;-96
2024/04/11 06:03:52;;;;;;;67.43;63.03;;;;;;;;;;6124696;22;19986;-96
2024/04/11 06:06:21;;;;;;;58.50;54.72;;;;;;;;;;6111569;23;20038;-96
2024/04/11 06:08:48;;;;;;;61.85;57.53;;;;;;;;;;6107818;23;20002;-96
2024/04/11 06:11:21;;;;;;;60.13;56.15;;;;;;;;;;6103092;23;20006;-96
2024/04/11 06:13:47;;;;;;;40.05;37.20;;;;;;;;;;6101968;23;20336;-96
2024/04/11 06:16:14;;;;;;;34.03;31.73;;;;;;;;;;6103807;23;20017;-96
2024/04/11 06:18:41;;;;;;;24.08;22.40;;;;;;;;;;6105329;23;20002;-96
2024/04/11 06:21:07;;;;;;;18.15;16.50;;;;;;;;;;6106123;23;20032;-96
2024/04/11 06:23:35;;;;;;;18.23;16.77;;;;;;;;;;6103163;23;20006;-96
2024/04/11 06:26:02;;;;;;;17.45;15.75;;;;;;;;;;6102269;23;20006;-96
2024/04/11 06:28:29;;;;;;;21.73;19.92;;;;;;;;;;6106978;23;20033;-96
2024/04/11 06:30:55;;;;;;;23.33;21.48;;;;;;;;;;6081288;23;20025;-96
2024/04/11 06:33:22;;;;;;;21.20;19.52;;;;;;;;;;6105692;23;20013;-96
2024/04/11 06:35:51;;;;;;;18.52;17.02;;;;;;;;;;6103443;23;20006;-96
2024/04/11 06:38:20;;;;;;;18.15;16.80;;;;;;;;;;6102579;23;20010;-96
2024/04/11 06:40:47;;;;;;;19.48;17.98;;;;;;;;;;6100738;23;20017;-96
2024/04/11 06:43:17;;;;;;;20.38;18.55;;;;;;;;;;6102041;23;20010;-96
2024/04/11 06:45:44;;;;;;;18.73;17.15;;;;;;;;;;6101721;23;20002;-96
2024/04/11 06:48:12;;;;;;;20.25;18.65;;;;;;;;;;6106982;23;20038;-96
2024/04/11 06:51:01;;;;;;;24.75;22.70;;;;;;;;;;6109364;23;20043;-96
2024/04/11 06:53:36;;;;;;;25.02;23.02;;;;;;;;;;6136744;23;20036;-96
2024/04/11 06:56:07;;;;;;;18.33;16.98;;;;;;;;;;6118152;23;20343;-96
2024/04/11 06:58:42;;;;;;;16.73;14.88;;;;;;;;;;6109958;22;20017;-96
2024/04/11 07:01:09;;;;;;;21.30;19.60;;;;;;;;;;6111231;23;20041;-96
2024/04/11 07:03:40;;;;;;;19.50;17.83;;;;;;;;;;6108083;23;20007;-96
2024/04/11 07:06:10;;;;;;;21.17;19.63;;;;;;;;;;6141902;23;20010;-95
2024/04/11 07:08:38;;;;;;;17.48;15.98;;;;;;;;;;6102174;23;20301;-96
2024/04/11 07:11:27;;;;;;;14.77;13.50;;;;;;;;;;6075944;22;20018;-93
2024/04/11 07:14:33;;;;;;;;;;;;;;;;;;;;;
2024/04/11 07:20:41;;;;;;;;;;;;;;;;;;;;;
2024/04/11 07:23:47;;;;;;;16.35;14.82;;;;;;;;;;5955357;24;20032;-96
2024/04/11 07:26:16;;;;;;;12.73;11.48;;;;;;;;;;5875116;23;20009;-95
2024/04/11 07:28:46;;;;;;;11.40;10.13;;;;;;;;;;6067483;23;20006;-96
2024/04/11 07:31:33;;;;;;;13.30;11.93;;;;;;;;;;6080570;23;20026;-95
2024/04/11 07:34:10;;;;;;;15.30;14.00;;;;;;;;;;6082688;23;20003;-95
2024/04/11 07:36:39;;;;;;;16.08;14.75;;;;;;;;;;6077713;23;20461;-96
2024/04/11 07:39:13;;;;;;;13.50;12.13;;;;;;;;;;6077814;23;20003;-94
2024/04/11 07:41:45;;;;;;;16.40;15.10;;;;;;;;;;6069835;23;20344;-93
2024/04/11 07:44:22;;;;;;;14.73;13.40;;;;;;;;;;6071082;23;20013;-96
2024/04/11 07:46:53;;;;;;;13.98;12.77;;;;;;;;;;6075703;23;20017;-95
2024/04/11 07:49:20;;;;;;;16.08;14.60;;;;;;;;;;6047544;23;20014;-95
2024/04/11 07:51:51;;;;;;;15.57;13.98;;;;;;;;;;6070309;23;20014;-94
2024/04/11 07:54:28;;;;;;;;;;;;;;;;;;;;;
2024/04/11 07:56:57;;;;;;;16.42;14.40;;;;;;;;;;6095876;23;20090;-95
2024/04/11 07:59:23;;;;;;;14.20;12.90;;;;;;;;;;6074191;23;20002;-93
2024/04/11 08:01:49;;;;;;;12.90;11.70;;;;;;;;;;6069152;23;20093;-95
2024/04/11 08:04:21;;;;;;;20.25;18.75;;;;;;;;;;6071643;23;20003;-95
2024/04/11 08:06:57;;;;;;;20.90;19.35;;;;;;;;;;6077548;23;19999;-96
2024/04/11 08:09:55;;;;;;;13.73;12.50;;;;;;;;;;6093297;23;20034;-96
2024/04/11 08:12:34;;;;;;;12.75;11.65;;;;;;;;;;6062054;23;20042;-96
2024/04/11 08:15:06;;;;;;;16.25;14.95;;;;;;;;;;6053380;23;20011;-96
2024/04/11 08:17:37;;;;;;;13.75;12.52;;;;;;;;;;6061302;23;20009;-96
2024/04/11 08:21:03;;;;;;;14.75;13.05;;;;;;;;;;6078990;23;20007;-95
2024/04/11 08:23:39;;;;;;;15.40;14.20;;;;;;;;;;6083225;23;20003;-95
2024/04/11 08:28:43;;;;;;;11.73;10.63;;;;;;;;;;6236193;22;20008;-96
2024/04/11 08:34:32;;;;;;;12.95;11.75;;;;;;;;;;6124588;22;20038;-96
2024/04/11 08:38:03;;;;;;;12.82;11.52;;;;;;;;;;6321412;22;20048;-95
2024/04/11 08:52:13;;;;;;;14.35;12.82;;;;;;;;;;6247459;22;20004;-95
2024/04/11 09:11:26;;;;;;;;;;;;;;;;;;;;;
2024/04/11 09:14:07;;;;;;;14.87;13.57;;;;;;;;;;6213205;23;19992;-96
2024/04/11 09:38:25;;;;;;;;;;;;;;;;;;;;;
2024/04/11 09:41:13;;;;;;;21.85;20.13;;;;;;;;;;6135061;23;20054;-96
2024/04/11 09:46:34;;;;;;;22.00;20.30;;;;;;;;;;6158942;22;20014;-95
2024/04/11 10:18:51;;;;;;;38.85;36.20;;;;;;;;;;6075899;22;20022;-94
2024/04/11 10:21:29;;;;;;;38.10;35.55;;;;;;;;;;6048529;23;20025;-96
2024/04/11 10:23:56;;;;;;;36.22;33.83;;;;;;;;;;6050672;23;20006;-96
2024/04/11 10:26:35;;;;;;;46.10;43.08;;;;;;;;;;6050166;23;20007;-95
2024/04/11 10:29:29;;;;;;;42.00;39.05;;;;;;;;;;6049511;23;20011;-96
2024/04/11 10:32:07;;;;;;;46.90;43.97;;;;;;;;;;6075721;23;20321;-96
2024/04/11 10:37:28;;;;;;;44.58;41.60;;;;;;;;;;6079222;23;20007;-95
2024/04/11 10:40:34;;;;;;;;;;;;;;;;;;;;;
2024/04/11 10:43:24;;;;;;;49.53;46.47;;;;;;;;;;6093486;22;20041;-96
2024/04/11 10:46:12;;;;;;;47.33;44.10;;;;;;;;;;6200610;23;20432;-96
2024/04/11 10:49:12;;;;;;;42.88;39.92;;;;;;;;;;6116308;23;20034;-96
2024/04/11 10:51:38;;;;;;;42.50;39.55;;;;;;;;;;6104234;22;20097;-96
2024/04/11 10:54:36;;;;;;;45.28;42.28;;;;;;;;;;6110524;23;20077;-96
2024/04/11 10:57:14;;;;;;;49.92;46.78;;;;;;;;;;6130692;22;20009;-96
2024/04/11 10:59:50;;;;;;;41.10;38.50;;;;;;;;;;6136920;23;20335;-95
2024/04/11 11:02:23;;;;;;;44.72;41.78;;;;;;;;;;6116810;23;20018;-95
2024/04/11 11:04:55;;;;;;;53.92;50.45;;;;;;;;;;6115295;23;20030;-96
2024/04/11 11:12:49;;;;;;;47.47;44.30;;;;;;;;;;6265333;23;20031;-96
2024/04/11 11:18:52;;;;;;;38.67;36.17;;;;;;;;;;6203800;23;20001;-96
2024/04/11 11:27:08;;;;;;;44.10;41.00;;;;;;;;;;6146535;22;20014;-95
2024/04/11 11:30:28;;;;;;;;;;;;;;;;;;;;;
2024/04/11 11:32:57;;;;;;;42.60;39.95;;;;;;;;;;6104644;23;19990;-96
2024/04/11 11:35:29;;;;;;;42.00;39.22;;;;;;;;;;6085286;23;20010;-95
2024/04/11 11:38:27;;;;;;;38.67;36.30;;;;;;;;;;6086388;23;20010;-96
2024/04/11 11:41:15;;;;;;;35.72;33.13;;;;;;;;;;6112909;23;20041;-96
2024/04/11 11:43:46;;;;;;;38.03;35.58;;;;;;;;;;6112489;23;20013;-96
2024/04/11 11:46:27;;;;;;;34.42;32.17;;;;;;;;;;6109608;23;20013;-95
2024/04/11 11:48:57;;;;;;;35.38;33.08;;;;;;;;;;6119902;22;19995;-96
2024/04/11 11:51:54;;;;;;;35.13;32.90;;;;;;;;;;6125930;22;20002;-95
2024/04/11 11:55:05;;;;;;;;;;;;;;;;;;;;;
2024/04/11 11:57:47;;;;;;;35.40;32.90;;;;;;;;;;6092616;22;20033;-96
2024/04/11 12:00:32;;;;;;;;;;;;;;;;;;;;;
2024/04/11 12:03:20;;;;;;;34.95;32.65;;;;;;;;;;6135841;22;20017;-96
2024/04/11 12:05:58;;;;;;;34.78;32.47;;;;;;;;;;6132229;22;20120;-94
2024/04/11 12:08:36;;;;;;;;;;;;;;;;;;;;;
2024/04/11 12:11:29;;;;;;;32.33;29.98;;;;;;;;;;6155781;22;20074;-96
2024/04/11 12:14:34;;;;;;;35.20;33.05;;;;;;;;;;6162197;22;20018;-96
2024/04/11 12:20:20;;;;;;;25.70;24.10;;;;;;;;;;6084856;23;20034;-96
2024/04/11 12:23:07;;;;;;;;;;;;;;;;;;;;;
2024/04/11 12:40:23;;;;;;;;;;;;;;;;;;;;;
2024/04/11 12:43:21;;;;;;;35.63;33.05;;;;;;;;;;6126341;22;20049;-96
2024/04/11 12:49:35;;;;;;;37.53;34.95;;;;;;;;;;6084358;23;20077;-96
2024/04/11 12:52:49;;;;;;;30.35;28.45;;;;;;;;;;6082802;23;20093;-96
2024/04/11 12:55:39;;;;;;;36.05;33.72;;;;;;;;;;6113741;22;20022;-96
2024/04/11 12:58:10;;;;;;;39.87;37.27;;;;;;;;;;6138516;23;20017;-96
2024/04/11 13:00:44;;;;;;;36.40;33.97;;;;;;;;;;6110392;23;20017;-96
2024/04/11 13:06:48;;;;;;;38.05;35.65;;;;;;;;;;6136406;23;20017;-96
2024/04/11 13:09:17;;;;;;;37.78;35.33;;;;;;;;;;6135805;23;20010;-96
2024/04/11 13:12:19;;;;;;;36.38;33.97;;;;;;;;;;6111737;23;20001;-95
2024/04/11 13:15:12;;;;;;;40.95;38.28;;;;;;;;;;6102854;23;20006;-96
2024/04/11 13:18:28;;;;;;;36.58;34.35;;;;;;;;;;6101564;23;20335;-96
2024/04/11 13:21:39;;;;;;;37.00;34.60;;;;;;;;;;6126850;23;20378;-96
2024/04/11 13:24:24;;;;;;;44.55;41.85;;;;;;;;;;6123139;23;20451;-96
2024/04/11 13:27:09;;;;;;;38.00;35.65;;;;;;;;;;6100507;23;20010;-94
2024/04/11 13:29:35;;;;;;;40.55;38.10;;;;;;;;;;6100177;23;20013;-95
2024/04/11 13:35:38;;;;;;;39.08;36.70;;;;;;;;;;6185843;23;20419;-94
2024/04/11 13:38:14;;;;;;;42.10;39.05;;;;;;;;;;6109425;23;20017;-96
2024/04/11 14:07:52;;;;;;;44.83;42.03;;;;;;;;;;6073013;23;20268;31
2024/04/11 14:29:56;;;;;;;;;;;;;;;;;;;;;
2024/04/11 14:43:55;;;;;;;47.17;43.78;;;;;;;;;;6260304;22;20024;-96
2024/04/11 14:46:47;;;;;;;49.43;46.40;;;;;;;;;;6249029;22;20011;-95
2024/04/11 14:49:16;;;;;;;45.47;42.28;;;;;;;;;;6238609;23;20327;-95
2024/04/11 14:51:44;;;;;;;52.05;48.47;;;;;;;;;;6233012;23;20004;-93
2024/04/11 14:54:15;;;;;;;52.75;49.42;;;;;;;;;;6223930;23;20008;-95
2024/04/11 14:56:48;;;;;;;56.85;53.13;;;;;;;;;;6252188;23;20015;-94
2024/04/11 14:59:15;;;;;;;46.65;43.65;;;;;;;;;;6255291;23;20004;-94
2024/04/11 15:01:44;;;;;;;50.05;46.72;;;;;;;;;;6225417;23;20012;-96
2024/04/11 15:04:10;;;;;;;43.70;40.58;;;;;;;;;;6224474;23;20004;-93
2024/04/11 15:06:37;;;;;;;48.67;45.40;;;;;;;;;;6221063;23;20004;-93
2024/04/11 15:11:50;;;;;;;49.80;46.63;;;;;;;;;;6250326;23;20031;-93
2024/04/11 15:14:18;;;;;;;51.90;48.70;;;;;;;;;;6221823;23;20430;-94
2024/04/11 15:16:47;;;;;;;42.75;39.97;;;;;;;;;;6222043;23;20004;-95
2024/04/11 15:19:20;;;;;;;54.30;50.72;;;;;;;;;;6250414;23;20004;-95
2024/04/11 15:22:11;;;;;;;56.00;52.28;;;;;;;;;;6223408;23;20012;-95
2024/04/11 15:24:52;;;;;;;50.55;47.45;;;;;;;;;;6250956;23;20012;-95
2024/04/11 15:27:20;;;;;;;51.65;48.25;;;;;;;;;;6198057;23;20019;-94
2024/04/11 15:30:07;;;;;;;50.92;47.42;;;;;;;;;;6199442;23;20012;-95
2024/04/11 15:32:38;;;;;;;45.78;42.83;;;;;;;;;;6252945;23;20008;-96
2024/04/11 15:35:09;;;;;;;53.60;50.30;;;;;;;;;;6249592;23;20007;-94
2024/04/11 15:38:16;;;;;;;55.58;52.08;;;;;;;;;;6221384;23;20338;-93
2024/04/11 15:40:50;;;;;;;44.92;42.00;;;;;;;;;;6221351;23;20074;-96
2024/04/11 15:43:26;;;;;;;51.53;48.05;;;;;;;;;;6220872;23;20087;-93
2024/04/11 15:49:11;;;;;;;51.60;48.17;;;;;;;;;;6223359;23;20008;-95
2024/04/11 15:57:35;;;;;;;55.33;51.95;;;;;;;;;;6121373;22;20020;-95
2024/04/11 16:00:39;;;;;;;42.15;39.60;;;;;;;;;;6195457;23;20451;-95
2024/04/11 16:03:14;;;;;;;50.30;47.13;;;;;;;;;;6174843;23;20067;-96
2024/04/11 16:05:44;;;;;;;50.25;47.05;;;;;;;;;;6192792;23;20023;-93
2024/04/11 16:08:13;;;;;;;55.25;51.33;;;;;;;;;;6186741;23;20013;-93
2024/04/11 16:10:41;;;;;;;52.38;48.85;;;;;;;;;;6186135;23;20064;-95
2024/04/11 16:25:39;;;;;;;56.03;52.67;;;;;;;;;;6078138;23;20059;-96
2024/04/11 16:29:19;;;;;;;44.10;41.05;;;;;;;;;;6157891;23;20025;-96
2024/04/11 16:31:48;;;;;;;70.30;66.00;;;;;;;;;;6189690;22;20016;-95
2024/04/11 16:34:19;;;;;;;64.88;61.03;;;;;;;;;;6236477;23;20083;-96
2024/04/11 16:36:53;;;;;;;63.40;59.53;;;;;;;;;;6229013;23;20035;-95
2024/04/11 16:39:49;;;;;;;;;;;;;;;;;;;;;
2024/04/11 16:42:42;;;;;;;58.33;54.50;;;;;;;;;;6222837;23;20043;-96
2024/04/11 16:47:58;;;;;;;63.38;59.38;;;;;;;;;;6249269;23;20027;-95
2024/04/11 16:50:57;;;;;;;;;;;;;;;;;;;;;
2024/04/11 17:03:20;;;;;;;81.22;76.50;;;;;;;;;;6202441;23;20031;-96
2024/04/11 17:05:46;;;;;;;65.53;61.70;;;;;;;;;;6067497;23;20356;-95
2024/04/11 17:08:41;;;;;;;74.75;70.28;;;;;;;;;;6172520;23;20092;-95
2024/04/11 17:11:07;;;;;;;56.67;53.28;;;;;;;;;;6170200;23;20009;-93
2024/04/11 17:13:33;;;;;;;62.38;58.50;;;;;;;;;;6161945;23;20005;-93
2024/04/11 17:18:07;;;;;;;115.18;108.63;;;;;;;;;;6178836;23;20081;-95
2024/04/11 17:25:38;;;;;;;58.65;55.08;;;;;;;;;;6094445;23;20037;-95
2024/04/11 17:28:12;;;;;;;75.80;71.35;;;;;;;;;;6095917;23;20017;-94
2024/04/11 17:30:45;;;;;;;;;;;;;;;;;;6100152;23;20006;-94
2024/04/11 17:42:12;;;;;;;158.45;149.73;;;;;;;;;;6054286;23;20101;-93
2024/04/11 17:50:43;;;;;;;187.35;177.70;;;;;;;;;;6081548;23;20436;-95
2024/04/11 17:53:48;;;;;;;;;;;;;;;;;;;;;
2024/04/11 17:59:53;;;;;;;155.75;147.50;;;;;;;;;;6008913;23;20019;-95
2024/04/11 18:02:21;;;;;;;153.38;145.07;;;;;;;;;;5984339;23;20502;-95
2024/04/11 18:05:38;;;;;;;;;;;;;;;;;;;;;
2024/04/11 18:08:02;;;;;;;85.97;80.60;;;;;;;;;;6062980;23;20010;-95
2024/04/11 18:10:37;;;;;;;70.78;66.32;;;;;;;;;;6097279;23;20013;-93
2024/04/11 18:13:04;;;;;;;111.93;105.25;;;;;;;;;;6095854;23;20002;-94
2024/04/11 18:15:39;;;;;;;118.55;111.60;;;;;;;;;;6097341;23;20006;-95
2024/04/11 18:18:11;;;;;;;84.82;79.50;;;;;;;;;;6101225;23;20058;-96
2024/04/11 18:20:44;;;;;;;61.75;57.90;;;;;;;;;;6096315;23;20061;-95
2024/04/11 18:23:15;;;;;;;25.08;22.98;;;;;;;;;;6097412;23;20002;-93
2024/04/11 18:25:42;;;;;;;129.75;122.65;;;;;;;;;;6099008;23;20018;-95
2024/04/11 18:28:15;;;;;;;61.75;57.95;;;;;;;;;;6097668;23;20018;-95
2024/04/11 18:30:53;;;;;;;43.22;40.03;;;;;;;;;;6098379;23;20363;-94
2024/04/11 18:33:29;;;;;;;33.75;31.50;;;;;;;;;;6099341;23;20010;-94
2024/04/11 18:35:56;;;;;;;67.65;63.60;;;;;;;;;;6097877;23;20081;-94
2024/04/11 18:38:25;;;;;;;91.40;86.07;;;;;;;;;;6095808;23;20085;-94
2024/04/11 18:40:57;;;;;;;30.00;27.63;;;;;;;;;;6094140;23;20017;-95
2024/04/11 18:43:29;;;;;;;16.90;15.60;;;;;;;;;;6093669;23;20056;-95
2024/04/11 18:48:42;;;;;;;41.22;38.70;;;;;;;;;;6097957;23;20027;-96
2024/04/11 18:51:11;;;;;;;21.05;19.52;;;;;;;;;;6094625;23;20037;-96
2024/04/11 18:53:41;;;;;;;23.55;21.70;;;;;;;;;;6094758;23;20432;-95
2024/04/11 18:56:10;;;;;;;17.75;16.45;;;;;;;;;;6094117;23;20012;-95
2024/04/11 18:58:44;;;;;;;21.20;19.60;;;;;;;;;;6095138;23;20006;-95
2024/04/11 19:01:17;;;;;;;28.73;26.50;;;;;;;;;;6093916;23;20010;-94
2024/04/11 19:03:46;;;;;;;59.78;56.40;;;;;;;;;;6093693;23;20018;-96
2024/04/11 19:06:28;;;;;;;21.02;19.52;;;;;;;;;;6095214;23;20343;-95
2024/04/11 19:08:54;;;;;;;36.47;34.03;;;;;;;;;;6093370;23;20347;-95
2024/04/11 19:11:20;;;;;;;18.05;16.75;;;;;;;;;;6093951;23;20002;-95
2024/04/11 19:13:50;;;;;;;25.42;23.85;;;;;;;;;;6093840;23;20110;-96
2024/04/11 19:16:22;;;;;;;34.05;31.98;;;;;;;;;;6095778;23;20085;-95
2024/04/11 19:18:53;;;;;;;39.45;37.17;;;;;;;;;;6096107;23;20013;-96
2024/04/11 19:21:39;;;;;;;17.70;16.42;;;;;;;;;;6097834;23;20018;-95
2024/04/11 19:24:14;;;;;;;25.95;24.20;;;;;;;;;;6096541;23;20007;-96
2024/04/11 19:29:51;;;;;;;;;;;;;;;;;;;;;
2024/04/11 19:32:26;;;;;;;17.88;16.55;;;;;;;;;;6117678;23;20037;-95
2024/04/11 19:35:31;;;;;;;17.73;16.23;;;;;;;;;;6104852;23;20010;-96
2024/04/11 19:38:00;;;;;;;15.30;14.13;;;;;;;;;;6095077;23;20010;-94
2024/04/11 19:43:19;;;;;;;23.92;22.17;;;;;;;;;;6092152;23;20018;-96
2024/04/11 19:45:49;;;;;;;18.60;17.33;;;;;;;;;;6097855;23;20021;-95
2024/04/11 19:48:16;;;;;;;32.40;30.38;;;;;;;;;;6098848;23;20018;-96